Terminal Aerodrome Forecast
Issued by NWS Memphis, TN

Home | Current Version | Previous Version | Text Only | Print | Product List | Glossary On
Versions: 1 2 3 4 5 6 7 8 9 10 11 12 13 14 15 16 17 18
000
FTUS44 KMEG 250520
TAFJBR
TAF
KJBR 250520Z 2506/2606 18010KT P6SM VCSH BKN060 OVC100
     FM251200 19010KT P6SM SCT015 BKN035
      TEMPO 2512/2515 BKN015
     FM251500 19014G20KT P6SM BKN035
     FM260000 18010KT P6SM VCTS BKN050CB
      TEMPO 2603/2606 3SM TSRA BKN025CB=

USA.gov is the U.S. government's official web portal to all federal, state and local government web resources and services.